createdAt,value
2018-04-28T00:00:49.185Z,0
2018-04-28T00:01:49.228Z,0
2018-04-28T00:02:49.225Z,0
2018-04-28T00:03:49.268Z,0
2018-04-28T00:04:49.168Z,0
2018-04-28T00:05:49.245Z,0
2018-04-28T00:06:49.197Z,0
2018-04-28T00:07:49.163Z,0
2018-04-28T00:08:49.234Z,0
2018-04-28T00:09:49.272Z,0
2018-04-28T00:10:49.152Z,0
2018-04-28T00:11:49.275Z,0
2018-04-28T00:12:49.262Z,0
2018-04-28T00:13:49.276Z,0
2018-04-28T00:14:49.295Z,0
2018-04-28T00:15:49.271Z,0
2018-04-28T00:16:49.204Z,0
2018-04-28T00:17:49.272Z,0
2018-04-28T00:18:49.207Z,0
2018-04-28T00:19:49.339Z,0
2018-04-28T00:20:49.218Z,0
2018-04-28T00:21:49.247Z,0
2018-04-28T00:22:49.282Z,0
2018-04-28T00:23:49.243Z,0
2018-04-28T00:24:49.262Z,0
2018-04-28T00:25:49.252Z,0
2018-04-28T00:26:49.147Z,0
2018-04-28T00:27:49.293Z,0
2018-04-28T00:28:49.163Z,0
2018-04-28T00:29:49.181Z,0
2018-04-28T00:30:49.247Z,0
2018-04-28T00:31:49.243Z,0
2018-04-28T00:32:49.245Z,0
2018-04-28T00:33:49.276Z,0
2018-04-28T00:34:49.276Z,0
2018-04-28T00:35:49.155Z,0
2018-04-28T00:36:49.271Z,0
2018-04-28T00:37:49.255Z,0
2018-04-28T00:38:49.221Z,0
2018-04-28T00:39:49.232Z,0
2018-04-28T00:40:49.283Z,0
2018-04-28T00:41:49.260Z,0
2018-04-28T00:42:49.175Z,0
2018-04-28T00:43:49.247Z,0
2018-04-28T00:44:49.215Z,0
2018-04-28T00:45:49.174Z,0
2018-04-28T00:46:49.142Z,0
2018-04-28T00:47:49.242Z,0
2018-04-28T00:48:49.122Z,0
2018-04-28T00:49:49.185Z,0
2018-04-28T00:50:49.216Z,0
2018-04-28T00:51:49.247Z,0
2018-04-28T00:52:49.182Z,0
2018-04-28T00:53:49.179Z,0
2018-04-28T00:54:49.281Z,0
2018-04-28T00:55:49.287Z,0
2018-04-28T00:56:49.184Z,0
2018-04-28T00:57:49.178Z,0
2018-04-28T00:58:49.232Z,0
2018-04-28T00:59:49.188Z,0
2018-04-28T01:00:49.298Z,0
2018-04-28T01:01:49.303Z,0
2018-04-28T01:02:49.253Z,0
2018-04-28T01:03:49.260Z,0
2018-04-28T01:04:49.173Z,0
2018-04-28T01:05:49.175Z,0
2018-04-28T01:06:49.194Z,0
2018-04-28T01:07:49.210Z,0
2018-04-28T01:08:49.263Z,0
2018-04-28T01:09:49.260Z,0
2018-04-28T01:10:49.268Z,0
2018-04-28T01:11:49.157Z,0
2018-04-28T01:12:49.202Z,0
2018-04-28T01:13:49.201Z,0
2018-04-28T01:14:49.204Z,0
2018-04-28T01:15:49.204Z,0
2018-04-28T01:16:49.237Z,0
2018-04-28T01:17:49.167Z,0
2018-04-28T01:18:49.211Z,0
2018-04-28T01:19:49.279Z,0
2018-04-28T01:20:49.278Z,0
2018-04-28T01:21:49.279Z,0
2018-04-28T01:22:49.235Z,0
2018-04-28T01:23:49.280Z,0
2018-04-28T01:24:49.282Z,0
2018-04-28T01:25:49.213Z,0
2018-04-28T01:26:49.284Z,0
2018-04-28T01:27:49.214Z,0
2018-04-28T01:28:49.281Z,0
2018-04-28T01:29:49.213Z,0
2018-04-28T01:30:49.214Z,0
2018-04-28T01:31:49.286Z,0
2018-04-28T01:32:49.285Z,0
2018-04-28T01:33:49.289Z,0
2018-04-28T01:34:49.304Z,0
2018-04-28T01:35:49.316Z,0
2018-04-28T01:36:49.290Z,0
2018-04-28T01:37:49.330Z,0
2018-04-28T01:38:49.286Z,0
2018-04-28T01:39:49.232Z,0
2018-04-28T01:40:49.333Z,0
2018-04-28T01:41:49.253Z,0
2018-04-28T01:42:49.185Z,0
2018-04-28T01:43:49.281Z,0
2018-04-28T01:44:49.248Z,0
2018-04-28T01:45:49.234Z,0
2018-04-28T01:46:49.250Z,0
2018-04-28T01:47:49.183Z,0
2018-04-28T01:48:49.231Z,0
2018-04-28T01:49:49.223Z,0
2018-04-28T01:50:49.288Z,0
2018-04-28T01:51:49.275Z,0
2018-04-28T01:52:49.233Z,0
2018-04-28T01:53:49.229Z,0
2018-04-28T01:54:49.232Z,0
2018-04-28T01:55:49.246Z,0
2018-04-28T01:56:49.317Z,0
2018-04-28T01:57:49.233Z,0
2018-04-28T01:58:49.303Z,0
2018-04-28T01:59:49.305Z,0
2018-04-28T02:00:49.306Z,0
2018-04-28T02:01:49.241Z,0
2018-04-28T02:02:49.240Z,0
2018-04-28T02:03:49.288Z,0
2018-04-28T02:04:49.297Z,0
2018-04-28T02:05:49.184Z,0
2018-04-28T02:06:49.237Z,0
2018-04-28T02:07:49.179Z,0
2018-04-28T02:08:49.209Z,0
2018-04-28T02:09:49.235Z,0
2018-04-28T02:10:49.289Z,0
2018-04-28T02:11:49.209Z,0
2018-04-28T02:12:49.187Z,0
2018-04-28T02:13:49.230Z,0
2018-04-28T02:14:49.306Z,0
2018-04-28T02:15:49.232Z,0
2018-04-28T02:16:49.231Z,0
2018-04-28T02:17:49.306Z,0
2018-04-28T02:18:49.333Z,0
2018-04-28T02:19:49.209Z,0
2018-04-28T02:20:49.308Z,0
2018-04-28T02:21:49.311Z,0
2018-04-28T02:22:49.218Z,0
2018-04-28T02:23:49.222Z,0
2018-04-28T02:24:49.270Z,0
2018-04-28T02:25:49.311Z,0
2018-04-28T02:26:49.240Z,0
2018-04-28T02:27:49.314Z,0
2018-04-28T02:28:49.257Z,0
2018-04-28T02:29:49.261Z,0
2018-04-28T02:30:49.243Z,0
2018-04-28T02:31:49.315Z,0
2018-04-28T02:32:49.337Z,0
2018-04-28T02:33:49.358Z,0
2018-04-28T02:34:49.250Z,0
2018-04-28T02:35:49.291Z,0
2018-04-28T02:36:49.232Z,0
2018-04-28T02:37:49.358Z,0
2018-04-28T02:38:49.306Z,0
2018-04-28T02:39:49.325Z,0
2018-04-28T02:40:49.303Z,0
2018-04-28T02:41:49.328Z,0
2018-04-28T02:42:49.332Z,0
2018-04-28T02:43:49.267Z,0
2018-04-28T02:44:49.337Z,0
2018-04-28T02:45:49.303Z,0
2018-04-28T02:46:49.331Z,0
2018-04-28T02:47:49.265Z,0
2018-04-28T02:48:49.328Z,0
2018-04-28T02:49:49.267Z,0
2018-04-28T02:50:49.236Z,0
2018-04-28T02:51:49.269Z,0
2018-04-28T02:52:49.333Z,0
2018-04-28T02:53:49.304Z,0
2018-04-28T02:54:49.332Z,0
2018-04-28T02:55:49.331Z,0
2018-04-28T02:56:49.296Z,0
2018-04-28T02:57:49.245Z,0
2018-04-28T02:58:49.258Z,0
2018-04-28T02:59:49.242Z,0
2018-04-28T03:00:49.334Z,0
2018-04-28T03:01:49.337Z,0
2018-04-28T03:02:49.311Z,0
2018-04-28T03:03:49.347Z,0
2018-04-28T03:04:49.363Z,0
2018-04-28T03:05:49.342Z,0
2018-04-28T03:06:49.343Z,0
2018-04-28T03:07:49.356Z,0
2018-04-28T03:08:49.418Z,0
2018-04-28T03:09:49.315Z,0
2018-04-28T03:10:49.381Z,0
2018-04-28T03:11:49.310Z,0
2018-04-28T03:12:49.269Z,0
2018-04-28T03:13:49.352Z,0
2018-04-28T03:14:49.345Z,0
2018-04-28T03:15:49.255Z,0
2018-04-28T03:16:49.349Z,0
2018-04-28T03:17:49.225Z,0
2018-04-28T03:18:49.279Z,0
2018-04-28T03:19:49.344Z,0
2018-04-28T03:20:49.315Z,0
2018-04-28T03:21:49.345Z,0
2018-04-28T03:22:49.348Z,0
2018-04-28T03:23:49.260Z,0
2018-04-28T03:24:49.315Z,0
2018-04-28T03:25:49.275Z,0
2018-04-28T03:26:49.261Z,0
2018-04-28T03:27:49.351Z,0
2018-04-28T03:28:49.298Z,0
2018-04-28T03:29:49.263Z,0
2018-04-28T03:30:49.353Z,0
2018-04-28T03:31:49.359Z,0
2018-04-28T03:32:49.248Z,0
2018-04-28T03:33:49.284Z,0
2018-04-28T03:34:49.352Z,0
2018-04-28T03:35:49.325Z,0
2018-04-28T03:36:49.355Z,0
2018-04-28T03:37:49.352Z,0
2018-04-28T03:38:49.359Z,0
2018-04-28T03:39:49.358Z,0
2018-04-28T03:40:49.305Z,0
2018-04-28T03:41:49.359Z,0
2018-04-28T03:42:49.333Z,0
2018-04-28T03:43:49.347Z,0
2018-04-28T03:44:49.364Z,0
2018-04-28T03:45:49.390Z,0
2018-04-28T03:46:49.339Z,0
2018-04-28T03:47:49.345Z,0
2018-04-28T03:48:49.330Z,0
2018-04-28T03:49:49.389Z,0
2018-04-28T03:50:49.347Z,0
2018-04-28T03:51:49.370Z,0
2018-04-28T03:52:49.304Z,0
2018-04-28T03:53:49.393Z,0
2018-04-28T03:54:49.308Z,0
2018-04-28T03:55:49.314Z,0
2018-04-28T03:56:49.374Z,0
2018-04-28T03:57:49.380Z,0
2018-04-28T03:58:49.325Z,0
2018-04-28T03:59:49.311Z,0
2018-04-28T04:00:49.386Z,0
2018-04-28T04:01:49.312Z,0
2018-04-28T04:02:49.357Z,0
2018-04-28T04:03:49.310Z,0
2018-04-28T04:04:49.244Z,0
2018-04-28T04:05:49.309Z,0
2018-04-28T04:06:49.251Z,0
2018-04-28T04:07:49.359Z,0
2018-04-28T04:08:49.371Z,0
2018-04-28T04:09:49.245Z,0
2018-04-28T04:10:49.248Z,0
2018-04-28T04:11:49.323Z,0
2018-04-28T04:12:49.316Z,0
2018-04-28T04:13:49.407Z,0
2018-04-28T04:14:49.316Z,0
2018-04-28T04:15:49.389Z,0
2018-04-28T04:16:49.316Z,0
2018-04-28T04:17:49.389Z,0
2018-04-28T04:18:49.322Z,0
2018-04-28T04:19:49.352Z,0
2018-04-28T04:20:49.398Z,0
2018-04-28T04:21:49.319Z,0
2018-04-28T04:22:49.371Z,0
2018-04-28T04:23:49.459Z,0
2018-04-28T04:24:49.309Z,0
2018-04-28T04:25:49.371Z,0
2018-04-28T04:26:49.428Z,0
2018-04-28T04:27:49.487Z,0
2018-04-28T04:28:49.354Z,0
2018-04-28T04:29:49.419Z,0
2018-04-28T04:30:49.371Z,0
2018-04-28T04:31:49.341Z,20
2018-04-28T04:32:49.359Z,17
2018-04-28T04:33:49.300Z,17
2018-04-28T04:34:49.381Z,18
2018-04-28T04:35:49.355Z,20
2018-04-28T04:36:49.314Z,20
2018-04-28T04:37:49.435Z,21
2018-04-28T04:38:49.336Z,23
2018-04-28T04:39:49.397Z,24
2018-04-28T04:40:49.331Z,25
2018-04-28T04:41:49.272Z,27
2018-04-28T04:42:49.303Z,28
2018-04-28T04:43:49.403Z,28
2018-04-28T04:44:49.334Z,27
2018-04-28T04:45:49.403Z,30
2018-04-28T04:46:49.338Z,37
2018-04-28T04:47:49.443Z,39
2018-04-28T04:48:49.410Z,39
2018-04-28T04:49:49.408Z,37
2018-04-28T04:50:49.337Z,34
2018-04-28T04:51:49.404Z,31
2018-04-28T04:52:49.344Z,31
2018-04-28T04:53:49.426Z,34
2018-04-28T04:54:49.415Z,35
2018-04-28T04:55:49.333Z,34
2018-04-28T04:56:49.430Z,35
2018-04-28T04:57:49.410Z,33
2018-04-28T04:58:49.334Z,37
2018-04-28T04:59:49.368Z,38
2018-04-28T05:00:49.535Z,40
2018-04-28T05:01:49.338Z,42
2018-04-28T05:02:49.447Z,43
2018-04-28T05:03:49.418Z,45
2018-04-28T05:04:49.345Z,48
2018-04-28T05:05:49.416Z,49
2018-04-28T05:06:49.355Z,51
2018-04-28T05:07:49.349Z,54
2018-04-28T05:08:49.352Z,52
2018-04-28T05:09:49.419Z,56
2018-04-28T05:10:49.347Z,52
2018-04-28T05:11:49.420Z,60
2018-04-28T05:12:49.423Z,62
2018-04-28T05:13:49.363Z,64
2018-04-28T05:14:49.392Z,66
2018-04-28T05:15:49.386Z,66
2018-04-28T05:16:49.388Z,67
2018-04-28T05:17:49.443Z,74
2018-04-28T05:18:49.390Z,79
2018-04-28T05:19:49.394Z,83
2018-04-28T05:20:49.394Z,84
2018-04-28T05:21:49.344Z,84
2018-04-28T05:22:49.453Z,82
2018-04-28T05:23:49.377Z,85
2018-04-28T05:24:49.277Z,87
2018-04-28T05:25:49.278Z,88
2018-04-28T05:26:49.405Z,89
2018-04-28T05:27:49.285Z,86
2018-04-28T05:28:49.383Z,87
2018-04-28T05:29:49.256Z,90
2018-04-28T05:30:49.286Z,90
2018-04-28T05:31:49.287Z,90
2018-04-28T05:32:49.292Z,90
2018-04-28T05:33:49.462Z,90
2018-04-28T05:34:49.435Z,89
2018-04-28T05:35:49.458Z,90
2018-04-28T05:36:49.435Z,91
2018-04-28T05:37:49.406Z,92
2018-04-28T05:38:49.474Z,94
2018-04-28T05:39:49.437Z,95
2018-04-28T05:40:49.407Z,93
2018-04-28T05:41:49.411Z,95
2018-04-28T05:42:49.347Z,99
2018-04-28T05:43:49.443Z,104
2018-04-28T05:44:49.334Z,108
2018-04-28T05:45:49.378Z,111
2018-04-28T05:46:49.444Z,119
2018-04-28T05:47:49.445Z,125
2018-04-28T05:48:49.464Z,130
2018-04-28T05:49:49.377Z,136
2018-04-28T05:50:49.445Z,142
2018-04-28T05:51:49.381Z,141
2018-04-28T05:52:49.449Z,152
2018-04-28T05:53:49.352Z,159
2018-04-28T05:54:49.427Z,163
2018-04-28T05:55:49.470Z,166
2018-04-28T05:56:49.426Z,161
2018-04-28T05:57:49.527Z,161
2018-04-28T05:58:49.443Z,160
2018-04-28T05:59:49.446Z,160
2018-04-28T06:00:49.484Z,157
2018-04-28T06:01:49.424Z,155
2018-04-28T06:02:49.470Z,152
2018-04-28T06:03:49.354Z,149
2018-04-28T06:04:49.346Z,139
2018-04-28T06:05:49.315Z,137
2018-04-28T06:06:49.352Z,132
2018-04-28T06:07:49.410Z,133
2018-04-28T06:08:49.305Z,124
2018-04-28T06:09:49.408Z,119
2018-04-28T06:10:49.316Z,120
2018-04-28T06:11:49.364Z,114
2018-04-28T06:12:49.354Z,114
2018-04-28T06:13:49.365Z,112
2018-04-28T06:14:49.490Z,112
2018-04-28T06:15:49.497Z,114
2018-04-28T06:16:49.463Z,116
2018-04-28T06:17:49.484Z,117
2018-04-28T06:18:49.496Z,121
2018-04-28T06:19:49.387Z,127
2018-04-28T06:20:49.425Z,132
2018-04-28T06:21:49.499Z,140
2018-04-28T06:22:49.363Z,150
2018-04-28T06:23:49.468Z,162
2018-04-28T06:24:49.467Z,172
2018-04-28T06:25:49.489Z,180
2018-04-28T06:26:49.484Z,180
2018-04-28T06:27:49.422Z,166
2018-04-28T06:28:49.469Z,126
2018-04-28T06:29:49.469Z,118
2018-04-28T06:30:49.410Z,123
2018-04-28T06:31:49.466Z,136
2018-04-28T06:32:49.505Z,161
2018-04-28T06:33:49.437Z,132
2018-04-28T06:34:49.373Z,169
2018-04-28T06:35:49.544Z,191
2018-04-28T06:36:49.473Z,254
2018-04-28T06:37:49.447Z,199
2018-04-28T06:38:49.445Z,195
2018-04-28T06:39:49.514Z,201
2018-04-28T06:40:49.478Z,224
2018-04-28T06:41:49.433Z,277
2018-04-28T06:42:49.499Z,246
2018-04-28T06:43:49.466Z,224
2018-04-28T06:44:49.385Z,225
2018-04-28T06:45:49.390Z,219
2018-04-28T06:46:49.468Z,247
2018-04-28T06:47:49.382Z,289
2018-04-28T06:48:49.370Z,292
2018-04-28T06:49:49.468Z,255
2018-04-28T06:50:49.369Z,271
2018-04-28T06:51:49.349Z,267
2018-04-28T06:52:49.478Z,308
2018-04-28T06:53:49.479Z,264
2018-04-28T06:54:49.413Z,296
2018-04-28T06:55:49.484Z,270
2018-04-28T06:56:49.396Z,249
2018-04-28T06:57:49.538Z,243
2018-04-28T06:58:49.370Z,248
2018-04-28T06:59:49.407Z,271
2018-04-28T07:00:49.480Z,238
2018-04-28T07:01:49.452Z,302
2018-04-28T07:02:49.488Z,261
2018-04-28T07:03:49.427Z,284
2018-04-28T07:04:49.427Z,326
2018-04-28T07:05:49.497Z,263
2018-04-28T07:06:49.427Z,271
2018-04-28T07:07:49.497Z,330
2018-04-28T07:08:49.428Z,322
2018-04-28T07:09:49.498Z,414
2018-04-28T07:10:49.473Z,345
2018-04-28T07:11:49.497Z,449
2018-04-28T07:12:49.432Z,404
2018-04-28T07:13:49.495Z,424
2018-04-28T07:14:49.433Z,312
2018-04-28T07:15:49.497Z,323
2018-04-28T07:16:49.432Z,342
2018-04-28T07:17:49.500Z,334
2018-04-28T07:18:49.431Z,421
2018-04-28T07:19:49.531Z,347
2018-04-28T07:20:49.434Z,506
2018-04-28T07:21:49.504Z,483
2018-04-28T07:22:49.439Z,520
2018-04-28T07:23:49.534Z,659
2018-04-28T07:24:49.523Z,651
2018-04-28T07:25:49.540Z,542
2018-04-28T07:26:49.475Z,557
2018-04-28T07:27:49.542Z,455
2018-04-28T07:28:49.465Z,652
2018-04-28T07:29:49.467Z,432
2018-04-28T07:30:49.478Z,500
2018-04-28T07:31:49.483Z,481
2018-04-28T07:32:49.481Z,495
2018-04-28T07:33:49.442Z,489
2018-04-28T07:34:49.413Z,451
2018-04-28T07:35:49.444Z,366
2018-04-28T07:36:49.511Z,319
2018-04-28T07:37:49.449Z,319
2018-04-28T07:40:53.916Z,321
2018-04-28T07:41:49.472Z,325
2018-04-28T07:42:49.551Z,326
2018-04-28T07:43:49.518Z,340
2018-04-28T07:44:49.452Z,356
2018-04-28T07:45:49.522Z,391
2018-04-28T07:46:49.769Z,390
2018-04-28T07:47:49.518Z,598
2018-04-28T07:48:49.452Z,386
2018-04-28T07:49:49.519Z,624
2018-04-28T07:50:49.455Z,418
2018-04-28T07:51:49.524Z,368
2018-04-28T07:52:49.459Z,355
2018-04-28T07:53:49.445Z,367
2018-04-28T07:54:49.488Z,400
2018-04-28T07:55:49.508Z,453
2018-04-28T07:56:49.489Z,395
2018-04-28T07:57:49.548Z,382
2018-04-28T07:58:49.525Z,393
2018-04-28T07:59:49.553Z,407
2018-04-28T08:00:49.526Z,396
2018-04-28T08:01:49.491Z,452
2018-04-28T08:02:49.552Z,1002
2018-04-28T08:03:49.566Z,693
2018-04-28T08:04:49.469Z,902
2018-04-28T08:05:49.572Z,406
2018-04-28T08:06:49.574Z,488
2018-04-28T08:07:49.454Z,434
2018-04-28T08:08:49.527Z,599
2018-04-28T08:09:49.499Z,377
2018-04-28T08:10:49.532Z,405
2018-04-28T08:11:49.567Z,849
2018-04-28T08:12:49.510Z,798
2018-04-28T08:13:49.572Z,766
2018-04-28T08:14:49.497Z,437
2018-04-28T08:15:49.509Z,538
2018-04-28T08:16:49.507Z,495
2018-04-28T08:17:49.563Z,848
2018-04-28T08:18:49.506Z,932
2018-04-28T08:19:49.501Z,742
2018-04-28T08:20:49.560Z,912
2018-04-28T08:21:49.576Z,325
2018-04-28T08:22:49.536Z,337
2018-04-28T08:23:49.559Z,881
2018-04-28T08:24:49.546Z,951
2018-04-28T08:25:49.477Z,885
2018-04-28T08:26:49.546Z,899
2018-04-28T08:27:49.546Z,624
2018-04-28T08:28:49.482Z,582
2018-04-28T08:29:49.546Z,900
2018-04-28T08:30:49.546Z,893
2018-04-28T08:31:49.553Z,888
2018-04-28T08:32:49.483Z,886
2018-04-28T08:33:49.585Z,853
2018-04-28T08:34:49.580Z,861
2018-04-28T08:35:49.588Z,760
2018-04-28T08:36:49.626Z,761
2018-04-28T08:37:49.519Z,872
2018-04-28T08:38:49.473Z,895
2018-04-28T08:39:49.485Z,939
2018-04-28T08:40:49.461Z,916
2018-04-28T08:41:49.465Z,902
2018-04-28T08:42:49.568Z,178
2018-04-28T08:43:49.554Z,574
2018-04-28T08:44:49.561Z,939
2018-04-28T08:45:49.497Z,958
2018-04-28T08:46:49.537Z,985
2018-04-28T08:47:49.555Z,977
2018-04-28T08:48:49.458Z,971
2018-04-28T08:49:49.580Z,1011
2018-04-28T08:50:49.517Z,1053
2018-04-28T08:51:49.518Z,1054
2018-04-28T08:52:49.593Z,1096
2018-04-28T08:53:49.594Z,1096
2018-04-28T08:54:49.483Z,398
2018-04-28T08:55:49.524Z,407
2018-04-28T08:56:49.488Z,375
2018-04-28T08:57:49.534Z,385
2018-04-28T08:58:49.564Z,581
2018-04-28T08:59:49.544Z,733
2018-04-28T09:00:49.486Z,375
2018-04-28T09:01:49.593Z,338
2018-04-28T09:02:49.565Z,321
2018-04-28T09:03:49.600Z,334
2018-04-28T09:04:49.547Z,1035
2018-04-28T09:05:49.600Z,1052
2018-04-28T09:06:49.639Z,282
2018-04-28T09:07:49.524Z,479
2018-04-28T09:08:49.572Z,1098
2018-04-28T09:09:49.526Z,386
2018-04-28T09:10:49.588Z,352
2018-04-28T09:11:49.567Z,456
2018-04-28T09:12:49.532Z,678
2018-04-28T09:13:49.546Z,500
2018-04-28T09:14:49.609Z,1175
2018-04-28T09:15:49.598Z,628
2018-04-28T09:16:49.577Z,1157
2018-04-28T09:17:49.611Z,1128
2018-04-28T09:18:49.608Z,881
2018-04-28T09:19:49.540Z,1182
2018-04-28T09:20:49.554Z,1177
2018-04-28T09:21:49.485Z,1177
2018-04-28T09:22:49.617Z,1158
2018-04-28T09:23:49.516Z,1164
2018-04-28T09:24:49.514Z,1160
2018-04-28T09:25:49.550Z,671
2018-04-28T09:26:49.513Z,362
2018-04-28T09:27:49.516Z,341
2018-04-28T09:28:49.586Z,321
2018-04-28T09:29:49.518Z,290
2018-04-28T09:30:49.584Z,269
2018-04-28T09:31:49.521Z,255
2018-04-28T09:32:49.481Z,250
2018-04-28T09:33:49.522Z,237
2018-04-28T09:34:49.588Z,224
2018-04-28T09:35:49.589Z,214
2018-04-28T09:36:49.523Z,203
2018-04-28T09:37:49.594Z,194
2018-04-28T09:38:49.524Z,193
2018-04-28T09:39:49.523Z,198
2018-04-28T09:40:49.592Z,208
2018-04-28T09:41:49.526Z,208
2018-04-28T09:42:49.538Z,222
2018-04-28T09:43:49.493Z,235
2018-04-28T09:44:49.544Z,255
2018-04-28T09:45:49.493Z,275
2018-04-28T09:46:49.496Z,291
2018-04-28T09:47:49.543Z,290
2018-04-28T09:48:49.544Z,281
2018-04-28T09:49:49.494Z,278
2018-04-28T09:50:49.494Z,274
2018-04-28T09:51:49.505Z,265
2018-04-28T09:52:49.548Z,256
2018-04-28T09:53:49.561Z,251
2018-04-28T09:54:49.531Z,260
2018-04-28T09:55:49.584Z,286
2018-04-28T09:56:49.588Z,317
2018-04-28T09:57:49.556Z,351
2018-04-28T09:58:49.553Z,383
2018-04-28T09:59:49.596Z,407
2018-04-28T10:00:49.597Z,414
2018-04-28T10:01:49.558Z,422
2018-04-28T10:02:49.556Z,421
2018-04-28T10:03:49.542Z,420
2018-04-28T10:04:49.543Z,554
2018-04-28T10:05:49.683Z,422
2018-04-28T10:06:49.611Z,378
2018-04-28T10:07:49.546Z,354
2018-04-28T10:08:49.609Z,326
2018-04-28T10:09:49.608Z,308
2018-04-28T10:10:49.613Z,303
2018-04-28T10:11:49.608Z,312
2018-04-28T10:12:49.642Z,322
2018-04-28T10:13:49.613Z,326
2018-04-28T10:14:49.619Z,325
2018-04-28T10:15:49.550Z,328
2018-04-28T10:16:49.614Z,343
2018-04-28T10:17:49.619Z,368
2018-04-28T10:18:49.551Z,403
2018-04-28T10:19:49.553Z,430
2018-04-28T10:20:49.615Z,549
2018-04-28T10:21:49.619Z,430
2018-04-28T10:22:49.598Z,419
2018-04-28T10:23:49.581Z,394
2018-04-28T10:24:49.596Z,368
2018-04-28T10:25:49.577Z,336
2018-04-28T10:26:49.518Z,323
2018-04-28T10:27:49.621Z,312
2018-04-28T10:28:49.599Z,311
2018-04-28T10:29:49.586Z,318
2018-04-28T10:30:49.658Z,336
2018-04-28T10:31:49.594Z,379
2018-04-28T10:32:49.620Z,470
2018-04-28T10:33:49.699Z,486
2018-04-28T10:34:49.574Z,517
2018-04-28T10:35:49.531Z,1242
2018-04-28T10:36:49.529Z,1423
2018-04-28T10:37:49.624Z,1420
2018-04-28T10:38:49.531Z,445
2018-04-28T10:39:49.532Z,770
2018-04-28T10:40:49.577Z,1022
2018-04-28T10:41:49.511Z,1220
2018-04-28T10:42:49.622Z,1200
2018-04-28T10:43:49.587Z,1184
2018-04-28T10:44:49.597Z,1048
2018-04-28T10:45:49.663Z,361
2018-04-28T10:46:49.534Z,392
2018-04-28T10:47:49.553Z,364
2018-04-28T10:48:49.661Z,390
2018-04-28T10:49:49.538Z,958
2018-04-28T10:50:49.673Z,492
2018-04-28T10:51:49.659Z,245
2018-04-28T10:52:49.602Z,266
2018-04-28T10:53:49.674Z,1163
2018-04-28T10:54:49.733Z,1138
2018-04-28T10:55:49.572Z,1108
2018-04-28T10:56:49.570Z,1088
2018-04-28T10:57:49.575Z,1085
2018-04-28T10:58:49.646Z,1098
2018-04-28T10:59:49.574Z,1101
2018-04-28T11:00:49.664Z,1078
2018-04-28T11:01:49.577Z,1080
2018-04-28T11:02:49.652Z,1103
2018-04-28T11:03:49.582Z,1100
2018-04-28T11:04:49.646Z,1098
2018-04-28T11:05:49.685Z,1085
2018-04-28T11:06:49.611Z,1077
2018-04-28T11:07:49.610Z,1090
2018-04-28T11:08:49.648Z,1094
2018-04-28T11:09:49.674Z,1073
2018-04-28T11:10:49.653Z,1043
2018-04-28T11:11:49.621Z,1004
2018-04-28T11:12:49.623Z,448
2018-04-28T11:13:49.613Z,993
2018-04-28T11:14:49.600Z,880
2018-04-28T11:15:49.585Z,299
2018-04-28T11:16:49.536Z,1156
2018-04-28T11:17:49.651Z,1145
2018-04-28T11:18:49.534Z,1128
2018-04-28T11:19:49.733Z,1125
2018-04-28T11:20:49.606Z,1174
2018-04-28T11:21:49.538Z,1148
2018-04-28T11:22:49.560Z,1178
2018-04-28T11:23:49.536Z,315
2018-04-28T11:24:49.591Z,280
2018-04-28T11:25:49.732Z,246
2018-04-28T11:26:49.589Z,265
2018-04-28T11:27:49.588Z,277
2018-04-28T11:28:49.592Z,279
2018-04-28T11:29:49.591Z,258
2018-04-28T11:30:49.662Z,300
2018-04-28T11:31:49.593Z,313
2018-04-28T11:32:49.664Z,310
2018-04-28T11:33:49.595Z,1263
2018-04-28T11:34:49.690Z,1206
2018-04-28T11:35:49.631Z,1184
2018-04-28T11:36:49.625Z,1166
2018-04-28T11:37:49.625Z,1145
2018-04-28T11:38:49.640Z,1132
2018-04-28T11:39:49.634Z,1135
2018-04-28T11:40:49.623Z,1118
2018-04-28T11:41:49.640Z,881
2018-04-28T11:42:49.575Z,1117
2018-04-28T11:43:49.693Z,1129
2018-04-28T11:44:49.526Z,257
2018-04-28T11:45:49.565Z,229
2018-04-28T11:46:49.663Z,261
2018-04-28T11:47:49.662Z,368
2018-04-28T11:48:49.575Z,1320
2018-04-28T11:49:49.607Z,708
2018-04-28T11:50:49.659Z,421
2018-04-28T11:51:49.632Z,334
2018-04-28T11:52:49.708Z,989
2018-04-28T11:53:49.650Z,985
2018-04-28T11:54:49.680Z,1220
2018-04-28T11:55:49.613Z,1242
2018-04-28T11:56:49.680Z,402
2018-04-28T11:57:49.677Z,503
2018-04-28T11:58:49.707Z,370
2018-04-28T11:59:49.679Z,314
2018-04-28T12:00:49.666Z,402
2018-04-28T12:01:49.617Z,515
2018-04-28T12:02:49.609Z,450
2018-04-28T12:03:49.702Z,893
2018-04-28T12:04:49.711Z,776
2018-04-28T12:05:49.620Z,1251
2018-04-28T12:06:49.655Z,1224
2018-04-28T12:07:49.589Z,1152
2018-04-28T12:08:49.729Z,1168
2018-04-28T12:09:49.655Z,1185
2018-04-28T12:10:49.728Z,1185
2018-04-28T12:11:49.593Z,1244
2018-04-28T12:12:49.648Z,1216
2018-04-28T12:13:49.708Z,1199
2018-04-28T12:14:49.687Z,1201
2018-04-28T12:15:49.693Z,1203
2018-04-28T12:16:49.621Z,377
2018-04-28T12:17:49.691Z,1198
2018-04-28T12:18:49.623Z,756
2018-04-28T12:19:49.692Z,319
2018-04-28T12:20:49.623Z,361
2018-04-28T12:21:49.629Z,1127
2018-04-28T12:22:49.723Z,1202
2018-04-28T12:23:49.628Z,1151
2018-04-28T12:24:49.648Z,1140
2018-04-28T12:25:49.628Z,1119
2018-04-28T12:26:49.705Z,1122
2018-04-28T12:27:49.697Z,1154
2018-04-28T12:28:49.633Z,367
2018-04-28T12:30:49.630Z,1128
2018-04-28T12:31:49.630Z,1117
2018-04-28T12:32:49.705Z,1096
2018-04-28T12:33:49.640Z,1083
2018-04-28T12:34:49.703Z,216
2018-04-28T12:35:49.634Z,541
2018-04-28T12:36:49.734Z,1083
2018-04-28T12:37:49.639Z,1075
2018-04-28T12:38:49.637Z,1069
2018-04-28T12:39:49.641Z,1074
2018-04-28T12:40:49.704Z,1085
2018-04-28T12:41:49.635Z,1086
2018-04-28T12:42:49.712Z,1093
2018-04-28T12:43:49.722Z,1108
2018-04-28T12:44:49.666Z,1062
2018-04-28T12:45:49.616Z,1117
2018-04-28T12:46:49.709Z,1114
2018-04-28T12:47:49.618Z,1096
2018-04-28T12:48:49.681Z,1095
2018-04-28T12:49:49.743Z,1088
2018-04-28T12:50:49.774Z,1069
2018-04-28T12:51:49.737Z,1056
2018-04-28T12:52:49.670Z,1038
2018-04-28T12:53:49.685Z,1017
2018-04-28T12:54:49.708Z,999
2018-04-28T12:55:49.603Z,985
2018-04-28T12:56:49.700Z,977
2018-04-28T12:57:49.720Z,974
2018-04-28T12:58:49.623Z,945
2018-04-28T12:59:49.722Z,974
2018-04-28T13:00:49.625Z,935
2018-04-28T13:01:49.627Z,981
2018-04-28T13:02:49.736Z,1005
2018-04-28T13:03:49.657Z,1043
2018-04-28T13:04:49.594Z,1075
2018-04-28T13:05:49.679Z,1095
2018-04-28T13:06:49.588Z,1089
2018-04-28T13:07:49.593Z,1075
2018-04-28T13:08:49.784Z,1044
2018-04-28T13:09:49.610Z,1041
2018-04-28T13:10:49.669Z,960
2018-04-28T13:11:49.634Z,920
2018-04-28T13:12:49.724Z,1065
2018-04-28T13:13:49.636Z,304
2018-04-28T13:14:49.710Z,382
2018-04-28T13:15:49.691Z,1083
2018-04-28T13:16:49.635Z,1130
2018-04-28T13:18:49.690Z,516
2018-04-28T13:19:49.694Z,376
2018-04-28T13:20:49.686Z,361
2018-04-28T13:21:49.691Z,985
2018-04-28T13:22:49.773Z,993
2018-04-28T13:23:49.756Z,1130
2018-04-28T13:24:49.707Z,1118
2018-04-28T13:25:49.693Z,997
2018-04-28T13:26:49.667Z,979
2018-04-28T13:27:49.722Z,375
2018-04-28T13:28:49.710Z,375
2018-04-28T13:29:49.685Z,1112
2018-04-28T13:30:49.716Z,1122
2018-04-28T13:31:49.702Z,1136
2018-04-28T13:32:49.611Z,406
2018-04-28T13:33:49.674Z,352
2018-04-28T13:34:49.673Z,332
2018-04-28T13:35:49.738Z,320
2018-04-28T13:36:49.673Z,321
2018-04-28T13:37:49.676Z,316
2018-04-28T13:38:49.672Z,339
2018-04-28T13:39:49.677Z,1031
2018-04-28T13:40:49.745Z,348
2018-04-28T13:41:49.674Z,564
2018-04-28T13:42:49.745Z,1110
2018-04-28T13:43:49.677Z,907
2018-04-28T13:44:49.748Z,373
2018-04-28T13:45:49.715Z,281
2018-04-28T13:46:49.746Z,262
2018-04-28T13:47:49.781Z,252
2018-04-28T13:48:49.767Z,272
2018-04-28T13:49:49.726Z,309
2018-04-28T13:50:49.767Z,364
2018-04-28T13:51:49.671Z,370
2018-04-28T13:52:49.652Z,360
2018-04-28T13:53:49.673Z,451
2018-04-28T13:54:49.728Z,636
2018-04-28T13:55:49.754Z,361
2018-04-28T13:56:49.751Z,344
2018-04-28T13:57:49.658Z,788
2018-04-28T13:58:49.712Z,424
2018-04-28T13:59:49.662Z,1035
2018-04-28T14:00:49.792Z,1038
2018-04-28T14:01:49.756Z,817
2018-04-28T14:02:49.764Z,779
2018-04-28T14:03:49.722Z,357
2018-04-28T14:04:49.795Z,631
2018-04-28T14:05:49.664Z,749
2018-04-28T14:06:49.734Z,297